Ana Sayfa
METAR-TAF:

METAR-TAF

Havaalanları :

Billy Mitchell Airport

Hatteras, Kuzey Carolina, Amerika Birleşik Devletleri

Enlem: 35-13-56N, Boylam: 075-37-21W, yükseklik: 5 m

Güncel hava durumu gözlemi

Rapor saat 20:51 UTC de 23 dakika önce yapıldı.
Rüzgar güney/güneybatıdan 10 kt
Sıcaklık 31°C
Nem 75%
Basınç 1017 hPa
Görüş mesafesi: 16.1 km
Açık gökyüzü

METAR: KHSE 172051Z AUTO 21010KT 10SM CLR 31/26 A3004 RMK AO2 SLP171 T03110261 58014

Saat: 17:14 (21:14 UTC)


TAF: eksik

4.000'den fazla havaalanı için hava durumu gözlemleri ve tahminleri (METAR ve TAF raporları).

Kullanılabilir istasyonlar harita üzerinde sarı ve kırmızı noktalarla gösterilir.

İstasyonun adını görmek için fareyi noktanın üzerinde gezdirin.

Sonrasında hava gözlem ve tahminlerini görmek için tıklayın.

Haritayı değiştirmek için: yaklaştırmak için siyah artı işaretli yeşil düğmeye ve uzaklaştırmak için de eksi işaretli düğmeye hızla tıklayın; bitişik haritalar için yeşil okları kullanın.


METAR-TAF: